Archival Weather

Annapolis United States Naval

Annapolis United States Naval, Maryland (KNAK)

Report from: Tuesday, June 6, 2023 7:54 PM UTC
Current time: Monday, June 17, 2024 11:23 AM UTC

Current weather – Weather history – Daily summaries
Weather forecast

Present weatherHaze
Temperature26.7°C (80.1°F)
Heat index26.7°C (80.1°F)
Dew point10.0°C (50.0°F)
Winds 10 kts (5.1 m/s, 11.5 mph) West (280°)
Visibility6 mi. (9.7 km)
Clouds Sky clear
Altimeter29.67 in.Hg (1005 mB)
Relative humidity35 %
Density altitude1,803 ft. (550 m)
Sea-level pressure100.5 kPa (1005 mB, 29.68 in.Hg)
Remarks Fully automated report
Automated weather observing station with precipitation discriminator
Flight conditions Visual Meteorological Conditions
Raw dataKNAK 061954Z AUTO 28010KT 6SM HZ CLR 27/10 A2967 RMK AO2 SLP050 T02670100
An error has occurred. This application may no longer respond until reloaded. Reload 🗙